createdAt,value
2022-12-01T02:05:33.000Z,33.00
2022-12-01T02:08:18.075Z,31.75
2022-12-01T02:11:23.726Z,29.80
2022-12-01T02:14:37.242Z,30.45
2022-12-01T02:17:27.502Z,30.63
2022-12-01T02:20:32.619Z,29.60
2022-12-01T02:23:35.843Z,30.58
2022-12-01T02:26:22.903Z,29.60
2022-12-01T02:29:02.911Z,28.83
2022-12-01T02:31:47.372Z,30.33
2022-12-01T02:34:54.391Z,27.30
2022-12-01T02:44:25.605Z,30.80
2022-12-01T02:47:59.890Z,29.35
2022-12-01T02:50:37.694Z,28.95
2022-12-01T02:56:25.880Z,28.73
2022-12-01T02:59:05.341Z,28.40
2022-12-01T03:02:13.035Z,27.08
2022-12-01T03:08:29.816Z,26.58
2022-12-01T03:11:10.172Z,26.53
2022-12-01T03:14:06.181Z,28.90
2022-12-01T03:17:13.628Z,30.13
2022-12-01T03:20:07.412Z,27.83
2022-12-01T03:23:04.155Z,28.67
2022-12-01T03:26:12.861Z,28.67
2022-12-01T03:28:53.882Z,28.45
2022-12-01T03:31:53.854Z,30.02
2022-12-01T03:35:10.284Z,28.95
2022-12-01T03:38:07.317Z,29.05
2022-12-01T03:41:05.163Z,27.37
2022-12-01T03:43:51.494Z,29.52
2022-12-01T03:47:07.822Z,28.42
2022-12-01T03:50:09.627Z,30.48
2022-12-01T03:53:37.108Z,28.23
2022-12-01T03:56:24.360Z,28.90
2022-12-01T03:59:07.283Z,29.80
2022-12-01T04:05:36.303Z,30.15
2022-12-01T04:08:34.326Z,29.02
2022-12-01T04:11:37.863Z,27.70
2022-12-01T04:14:41.402Z,30.27
2022-12-01T04:20:16.638Z,29.85
2022-12-01T04:22:55.907Z,30.55
2022-12-01T04:28:31.933Z,29.27
2022-12-01T04:31:19.780Z,30.10
2022-12-01T04:34:03.146Z,31.10
2022-12-01T04:36:58.170Z,28.77
2022-12-01T04:39:45.630Z,29.67
2022-12-01T04:42:34.068Z,30.88
2022-12-01T04:45:20.368Z,30.52
2022-12-01T04:47:58.684Z,31.23
2022-12-01T04:50:51.692Z,29.77
2022-12-01T04:56:43.355Z,28.63
2022-12-01T04:59:26.760Z,30.63
2022-12-01T05:02:09.456Z,31.25
2022-12-01T05:08:30.253Z,29.27
2022-12-01T05:11:14.123Z,29.27
2022-12-01T05:16:55.343Z,28.92
2022-12-01T05:19:42.986Z,30.98
2022-12-01T05:23:04.412Z,27.97
2022-12-01T05:25:41.759Z,27.90
2022-12-01T05:28:11.902Z,32.45
2022-12-01T05:31:13.370Z,30.45
2022-12-01T05:34:06.720Z,29.10
2022-12-01T05:36:36.013Z,29.83
2022-12-01T05:39:04.387Z,29.55
2022-12-01T05:41:32.985Z,30.85
2022-12-01T05:47:13.854Z,31.00
2022-12-01T05:50:06.249Z,28.57
2022-12-01T05:52:37.418Z,29.75
2022-12-01T05:55:20.292Z,30.05
2022-12-01T05:58:22.007Z,30.40
2022-12-01T06:07:35.039Z,31.20
2022-12-01T06:13:08.532Z,32.78
2022-12-01T06:15:35.364Z,30.25
2022-12-01T06:18:02.254Z,32.67
2022-12-01T06:20:29.004Z,31.63
2022-12-01T06:22:55.854Z,35.15
2022-12-01T06:25:22.612Z,31.65
2022-12-01T06:27:49.812Z,32.60
2022-12-01T06:30:16.908Z,30.43
2022-12-01T06:32:43.889Z,31.02
2022-12-01T06:35:10.794Z,33.03
2022-12-01T06:37:37.679Z,30.75
2022-12-01T06:40:05.273Z,33.58
2022-12-01T06:42:32.564Z,32.07
2022-12-01T06:45:01.282Z,32.13
2022-12-01T06:47:31.111Z,34.17
2022-12-01T06:49:58.108Z,31.08
2022-12-01T06:52:26.270Z,30.90
2022-12-01T06:54:53.137Z,31.10
2022-12-01T06:57:20.512Z,31.85
2022-12-01T06:59:48.453Z,32.75
2022-12-01T07:02:18.616Z,33.08
2022-12-01T07:04:45.484Z,31.77
2022-12-01T07:07:12.835Z,32.77
2022-12-01T07:09:40.030Z,34.33
2022-12-01T07:12:07.150Z,32.67
2022-12-01T07:14:34.197Z,32.88
2022-12-01T07:17:01.024Z,32.22
2022-12-01T07:19:27.929Z,33.37
2022-12-01T07:21:54.762Z,34.00
2022-12-01T07:24:21.565Z,32.13
2022-12-01T07:26:48.380Z,32.60
2022-12-01T07:29:15.465Z,34.00
2022-12-01T07:31:42.378Z,31.77
2022-12-01T07:34:12.142Z,33.45
2022-12-01T07:36:39.387Z,31.58
2022-12-01T07:39:07.920Z,30.75
2022-12-01T07:41:35.612Z,33.13
2022-12-01T07:44:02.955Z,34.73
2022-12-01T07:46:30.231Z,35.10
2022-12-01T07:48:57.596Z,35.53
2022-12-01T07:51:26.295Z,33.05
2022-12-01T07:53:54.319Z,34.53
2022-12-01T07:56:22.718Z,33.67
2022-12-01T07:58:49.858Z,34.35
2022-12-01T08:01:19.474Z,35.20
2022-12-01T08:03:52.355Z,33.40
2022-12-01T08:06:20.437Z,33.03
2022-12-01T08:08:47.698Z,35.63
2022-12-01T08:11:17.481Z,34.58
2022-12-01T08:13:44.905Z,36.03
2022-12-01T08:16:18.728Z,33.85
2022-12-01T08:18:46.029Z,37.63
2022-12-01T08:21:15.361Z,35.13
2022-12-01T08:23:42.784Z,33.85
2022-12-01T08:26:13.962Z,33.40
2022-12-01T08:28:41.446Z,34.72
2022-12-01T08:31:26.893Z,34.50
2022-12-01T08:33:54.181Z,34.50
2022-12-01T08:36:22.234Z,36.22
2022-12-01T08:38:52.009Z,36.88
2022-12-01T08:41:19.847Z,35.55
2022-12-01T08:43:57.956Z,34.10
2022-12-01T08:46:28.333Z,34.97
2022-12-01T08:48:57.627Z,35.67
2022-12-01T08:51:25.708Z,38.03
2022-12-01T08:53:52.882Z,35.78
2022-12-01T08:56:28.560Z,37.22
2022-12-01T08:58:55.818Z,37.50
2022-12-01T09:01:23.438Z,36.58
2022-12-01T09:04:06.472Z,37.70
2022-12-01T09:06:39.251Z,32.50
2022-12-01T09:09:06.864Z,36.08
2022-12-01T09:11:33.659Z,34.40
2022-12-01T09:14:01.054Z,34.50
2022-12-01T09:16:28.398Z,33.90
2022-12-01T09:18:56.205Z,35.00
2022-12-01T09:21:26.260Z,33.67
2022-12-01T09:23:53.805Z,33.97
2022-12-01T09:26:21.281Z,35.97
2022-12-01T09:28:50.426Z,35.13
2022-12-01T09:31:18.567Z,35.50
2022-12-01T09:33:45.653Z,35.85
2022-12-01T09:36:12.927Z,36.23
2022-12-01T09:38:40.294Z,36.05
2022-12-01T09:41:21.552Z,38.97
2022-12-01T09:43:58.869Z,36.17
2022-12-01T09:46:32.096Z,34.00
2022-12-01T09:49:01.707Z,38.00
2022-12-01T09:51:31.581Z,35.15
2022-12-01T09:53:59.795Z,36.60
2022-12-01T09:56:32.565Z,35.92
2022-12-01T09:59:05.518Z,36.00
2022-12-01T10:01:41.738Z,36.07
2022-12-01T10:04:20.850Z,35.67
2022-12-01T10:06:59.276Z,35.80
2022-12-01T10:09:32.513Z,36.83
2022-12-01T10:12:09.260Z,38.03
2022-12-01T10:14:39.869Z,36.20
2022-12-01T10:17:42.710Z,35.58
2022-12-01T10:20:34.274Z,35.33
2022-12-01T10:23:04.347Z,33.08
2022-12-01T10:25:58.861Z,35.50
2022-12-01T10:28:58.122Z,35.97
2022-12-01T10:31:39.654Z,35.85
2022-12-01T10:34:10.242Z,36.40
2022-12-01T10:36:37.148Z,34.95
2022-12-01T10:39:12.039Z,37.65
2022-12-01T10:41:40.158Z,36.23
2022-12-01T10:44:08.671Z,34.83
2022-12-01T10:46:43.509Z,36.20
2022-12-01T10:49:13.107Z,33.42
2022-12-01T10:51:55.258Z,37.33
2022-12-01T10:54:24.064Z,34.50
2022-12-01T10:56:57.171Z,36.35
2022-12-01T10:59:34.912Z,35.53
2022-12-01T11:02:02.901Z,33.70
2022-12-01T11:04:46.449Z,34.60
2022-12-01T11:07:24.767Z,34.47
2022-12-01T11:10:15.184Z,33.58
2022-12-01T11:12:45.500Z,32.83
2022-12-01T11:15:27.126Z,32.92
2022-12-01T11:17:59.916Z,35.50
2022-12-01T11:20:33.523Z,34.20
2022-12-01T11:23:20.635Z,34.28
2022-12-01T11:26:15.627Z,32.42
2022-12-01T11:29:25.289Z,32.10
2022-12-01T11:31:55.757Z,31.05
2022-12-01T11:34:27.737Z,28.60
2022-12-01T11:37:18.693Z,32.65
2022-12-01T11:39:48.585Z,32.47
2022-12-01T11:42:25.487Z,34.20
2022-12-01T11:45:03.033Z,32.75
2022-12-01T11:47:43.585Z,31.47
2022-12-01T11:50:30.333Z,31.23
2022-12-01T11:52:57.773Z,33.95
2022-12-01T11:55:27.131Z,32.53
2022-12-01T11:57:57.679Z,32.65
2022-12-01T12:00:30.546Z,32.13
2022-12-01T12:03:04.855Z,33.63
2022-12-01T12:05:45.445Z,33.60
2022-12-01T12:08:35.955Z,30.23
2022-12-01T12:11:24.725Z,33.58
2022-12-01T12:14:29.354Z,32.73
2022-12-01T12:17:26.828Z,30.13
2022-12-01T12:20:13.081Z,32.25
2022-12-01T12:22:59.681Z,30.98
2022-12-01T12:25:57.913Z,29.67
2022-12-01T12:28:48.621Z,29.43
2022-12-01T12:31:24.447Z,30.48
2022-12-01T12:33:54.092Z,30.23
2022-12-01T12:36:26.941Z,30.23
2022-12-01T12:39:02.632Z,33.45
2022-12-01T12:41:46.919Z,30.27
2022-12-01T12:44:36.766Z,31.75
2022-12-01T12:47:27.613Z,30.13
2022-12-01T12:50:11.080Z,27.40
2022-12-01T12:52:42.905Z,27.92
2022-12-01T12:55:21.321Z,28.80
2022-12-01T12:57:54.116Z,27.88
2022-12-01T13:00:26.484Z,27.75
2022-12-01T13:03:18.842Z,27.50
2022-12-01T13:05:53.994Z,27.27
2022-12-01T13:08:26.804Z,25.37
2022-12-01T13:11:04.544Z,29.08
2022-12-01T13:13:56.363Z,28.50
2022-12-01T13:16:37.366Z,26.75
2022-12-01T13:19:19.913Z,26.90
2022-12-01T13:21:50.000Z,28.17
2022-12-01T13:24:23.271Z,28.65
2022-12-01T13:27:10.985Z,28.52
2022-12-01T13:29:43.843Z,27.48
2022-12-01T13:32:31.985Z,27.15
2022-12-01T13:35:00.774Z,24.30
2022-12-01T13:37:33.549Z,28.10
2022-12-01T13:40:33.018Z,29.40
2022-12-01T13:43:15.528Z,27.42
2022-12-01T13:45:43.888Z,27.92
2022-12-01T13:48:46.409Z,26.20
2022-12-01T13:51:13.479Z,25.70
2022-12-01T13:54:16.378Z,25.55
2022-12-01T13:57:05.076Z,25.77
2022-12-01T13:59:58.191Z,26.60
2022-12-01T14:02:28.822Z,25.23
2022-12-01T14:05:15.678Z,25.95
2022-12-01T14:07:43.736Z,27.75
2022-12-01T14:10:25.126Z,27.67
2022-12-01T14:12:54.199Z,29.48
2022-12-01T14:15:23.637Z,28.20
2022-12-01T14:18:04.137Z,31.00
2022-12-01T14:20:35.141Z,27.55
2022-12-01T14:23:17.047Z,29.17
2022-12-01T14:26:16.449Z,28.27
2022-12-01T14:28:55.583Z,37.40
2022-12-01T14:31:24.315Z,29.30
2022-12-01T14:34:00.031Z,28.55
2022-12-01T14:36:36.704Z,27.10
2022-12-01T14:39:26.177Z,27.63
2022-12-01T14:41:57.238Z,27.57
2022-12-01T14:44:27.663Z,28.20
2022-12-01T14:47:27.670Z,28.63
2022-12-01T14:50:13.983Z,27.58
2022-12-01T14:52:51.381Z,28.05
2022-12-01T14:55:25.179Z,26.23
2022-12-01T14:58:06.286Z,27.20
2022-12-01T15:00:37.550Z,26.08
2022-12-01T15:03:12.850Z,24.38
2022-12-01T15:05:42.383Z,24.95
2022-12-01T15:08:42.017Z,28.67
2022-12-01T15:11:25.806Z,31.02
2022-12-01T15:13:57.498Z,25.52
2022-12-01T15:16:28.468Z,29.98
2022-12-01T15:18:55.962Z,28.65
2022-12-01T15:21:25.097Z,26.50
2022-12-01T15:24:21.818Z,26.17
2022-12-01T15:27:03.265Z,27.27
2022-12-01T15:29:45.682Z,26.27
2022-12-01T15:32:16.807Z,27.52
2022-12-01T15:34:46.031Z,26.80
2022-12-01T15:37:21.738Z,25.38
2022-12-01T15:43:22.025Z,24.33
2022-12-01T15:46:19.589Z,28.55
2022-12-01T15:48:46.785Z,26.27
2022-12-01T15:51:27.863Z,24.88
2022-12-01T15:53:59.130Z,26.58
2022-12-01T15:56:36.120Z,29.10
2022-12-01T15:59:07.542Z,29.33
2022-12-01T16:01:36.217Z,27.70
2022-12-01T16:04:26.744Z,28.73
2022-12-01T16:07:04.787Z,29.38
2022-12-01T16:09:38.467Z,26.73
2022-12-01T16:12:22.947Z,27.35
2022-12-01T16:14:54.522Z,26.53
2022-12-01T16:17:23.305Z,28.13
2022-12-01T16:20:26.884Z,27.17
2022-12-01T16:23:11.233Z,25.90
2022-12-01T16:25:43.626Z,28.88
2022-12-01T16:28:25.815Z,27.53
2022-12-01T16:31:04.844Z,28.98
2022-12-01T16:33:37.418Z,28.67
2022-12-01T16:36:04.492Z,28.02
2022-12-01T16:38:31.390Z,29.92
2022-12-01T16:41:02.466Z,29.53
2022-12-01T16:43:32.753Z,26.98
2022-12-01T16:46:23.093Z,28.83
2022-12-01T16:49:04.893Z,27.33
2022-12-01T16:51:54.162Z,26.85
2022-12-01T16:54:18.628Z,26.23
2022-12-01T16:56:45.463Z,27.20
2022-12-01T16:59:12.437Z,26.08
2022-12-01T17:01:39.339Z,27.23
2022-12-01T17:04:07.739Z,28.58
2022-12-01T17:06:38.458Z,27.63
2022-12-01T17:09:06.086Z,28.77
2022-12-01T17:11:33.217Z,29.52
2022-12-01T17:14:00.111Z,29.17
2022-12-01T17:16:27.313Z,29.38
2022-12-01T17:18:54.183Z,28.47
2022-12-01T17:21:20.972Z,29.90
2022-12-01T17:23:48.056Z,28.10
2022-12-01T17:26:17.048Z,28.50
2022-12-01T17:28:43.931Z,29.13
2022-12-01T17:31:11.147Z,30.13
2022-12-01T17:33:38.307Z,29.95
2022-12-01T17:36:11.270Z,30.15
2022-12-01T17:38:40.689Z,30.13
2022-12-01T17:41:14.429Z,28.17
2022-12-01T17:43:45.572Z,28.70
2022-12-01T17:46:13.397Z,26.23
2022-12-01T17:48:46.350Z,28.48
2022-12-01T17:51:14.464Z,28.50
2022-12-01T17:53:44.671Z,28.52
2022-12-01T17:56:14.520Z,27.37
2022-12-01T17:58:45.096Z,30.38
2022-12-01T18:01:17.546Z,29.65
2022-12-01T18:03:45.202Z,31.20
2022-12-01T18:06:12.863Z,31.67
2022-12-01T18:08:41.213Z,32.03
2022-12-01T18:11:11.308Z,29.30
2022-12-01T18:13:39.659Z,31.45
2022-12-01T18:16:08.723Z,29.27
2022-12-01T18:18:38.326Z,29.95
2022-12-01T18:21:13.699Z,27.03
2022-12-01T18:23:41.582Z,27.83
2022-12-01T18:26:15.809Z,26.30
2022-12-01T18:28:45.188Z,26.83
2022-12-01T18:31:15.027Z,26.80
2022-12-01T18:33:46.498Z,25.90
2022-12-01T18:36:17.257Z,25.50
2022-12-01T18:38:45.795Z,27.63
2022-12-01T18:41:14.084Z,27.85
2022-12-01T18:43:41.715Z,26.50
2022-12-01T18:46:10.088Z,26.83
2022-12-01T18:48:38.438Z,27.90
2022-12-01T18:51:07.780Z,26.63
2022-12-01T18:53:35.250Z,27.15
2022-12-01T18:56:05.038Z,26.58
2022-12-01T18:58:32.987Z,25.90
2022-12-01T19:01:16.601Z,28.00
2022-12-01T19:03:43.646Z,28.67
2022-12-01T19:06:13.096Z,26.65
2022-12-01T19:08:41.717Z,28.45
2022-12-01T19:11:08.923Z,26.37
2022-12-01T19:13:37.198Z,27.45
2022-12-01T19:16:18.611Z,29.08
2022-12-01T19:18:46.345Z,26.67
2022-12-01T19:21:16.266Z,27.52
2022-12-01T19:23:43.999Z,28.93
2022-12-01T19:26:15.121Z,28.23
2022-12-01T19:28:45.486Z,29.48
2022-12-01T19:31:38.712Z,27.13
2022-12-01T19:34:16.559Z,30.90
2022-12-01T19:36:43.628Z,31.43
2022-12-01T19:39:11.375Z,30.08
2022-12-01T19:41:38.815Z,31.65
2022-12-01T19:44:11.309Z,29.20
2022-12-01T19:46:38.473Z,29.15
2022-12-01T19:49:06.950Z,30.30
2022-12-01T19:51:35.792Z,28.63
2022-12-01T19:54:05.639Z,30.02
2022-12-01T19:56:32.970Z,27.88
2022-12-01T19:59:03.136Z,31.38
2022-12-01T20:01:30.623Z,31.27
2022-12-01T20:03:57.803Z,30.92
2022-12-01T20:06:27.445Z,29.08
2022-12-01T20:08:56.925Z,30.45
2022-12-01T20:11:25.040Z,34.90
2022-12-01T20:13:52.701Z,33.80
2022-12-01T20:16:27.685Z,38.45
2022-12-01T20:18:55.057Z,45.80
2022-12-01T20:21:35.132Z,35.22
2022-12-01T20:24:07.445Z,32.13
2022-12-01T20:26:57.187Z,30.43
2022-12-01T20:29:29.704Z,30.50
2022-12-01T20:31:59.264Z,30.15
2022-12-01T20:34:29.785Z,30.83
2022-12-01T20:36:56.888Z,32.22
2022-12-01T20:39:24.755Z,31.53
2022-12-01T20:41:52.080Z,31.38
2022-12-01T20:44:28.520Z,31.10
2022-12-01T20:46:55.775Z,31.80
2022-12-01T20:49:22.868Z,33.60
2022-12-01T20:51:50.001Z,30.47
2022-12-01T20:54:27.967Z,32.08
2022-12-01T20:56:56.130Z,30.77
2022-12-01T20:59:23.180Z,28.90
2022-12-01T21:01:50.119Z,30.88
2022-12-01T21:04:17.753Z,31.43
2022-12-01T21:06:44.769Z,28.38
2022-12-01T21:09:13.148Z,29.23
2022-12-01T21:12:08.359Z,27.40
2022-12-01T21:15:22.304Z,30.95
2022-12-01T21:17:56.473Z,30.63
2022-12-01T21:20:40.249Z,31.80
2022-12-01T21:23:17.291Z,30.90
2022-12-01T21:25:44.749Z,30.52
2022-12-01T21:28:19.816Z,31.55
2022-12-01T21:30:48.756Z,31.80
2022-12-01T21:33:31.288Z,29.88
2022-12-01T21:36:14.904Z,32.47
2022-12-01T21:38:46.305Z,31.33
2022-12-01T21:41:23.498Z,30.80
2022-12-01T21:43:53.893Z,30.33
2022-12-01T21:46:27.271Z,33.53
2022-12-01T21:48:55.443Z,33.75
2022-12-01T21:51:24.332Z,32.42
2022-12-01T21:53:55.697Z,33.30
2022-12-01T21:56:26.929Z,30.30
2022-12-01T21:58:57.569Z,33.65
